sensor_id;sensor_type;location;lat;lon;timestamp;temperature;humidity
53045;DHT22;38930;52.766;6.884;2022-07-29T00:00:35;16.20;99.90
53045;DHT22;38930;52.766;6.884;2022-07-29T00:03:02;16.30;99.90
53045;DHT22;38930;52.766;6.884;2022-07-29T00:05:27;15.80;99.90
53045;DHT22;38930;52.766;6.884;2022-07-29T00:07:53;16.00;99.90
53045;DHT22;38930;52.766;6.884;2022-07-29T00:10:19;15.80;99.90
53045;DHT22;38930;52.766;6.884;2022-07-29T00:12:44;15.70;99.90
53045;DHT22;38930;52.766;6.884;2022-07-29T00:15:10;15.70;99.90
53045;DHT22;38930;52.766;6.884;2022-07-29T00:17:35;15.70;99.90
53045;DHT22;38930;52.766;6.884;2022-07-29T00:20:01;15.60;99.90
53045;DHT22;38930;52.766;6.884;2022-07-29T00:22:27;15.70;99.90
53045;DHT22;38930;52.766;6.884;2022-07-29T00:24:52;15.60;99.90
53045;DHT22;38930;52.766;6.884;2022-07-29T00:27:18;15.60;99.90
53045;DHT22;38930;52.766;6.884;2022-07-29T00:29:44;15.50;99.90
53045;DHT22;38930;52.766;6.884;2022-07-29T00:32:09;15.50;99.90
53045;DHT22;38930;52.766;6.884;2022-07-29T00:34:35;15.70;99.90
53045;DHT22;38930;52.766;6.884;2022-07-29T00:37:19;15.50;99.90
53045;DHT22;38930;52.766;6.884;2022-07-29T00:39:45;15.50;99.90
53045;DHT22;38930;52.766;6.884;2022-07-29T00:42:11;15.50;99.90
53045;DHT22;38930;52.766;6.884;2022-07-29T00:44:38;15.50;99.90
53045;DHT22;38930;52.766;6.884;2022-07-29T00:47:03;15.80;99.90
53045;DHT22;38930;52.766;6.884;2022-07-29T00:49:29;15.50;99.90
53045;DHT22;38930;52.766;6.884;2022-07-29T00:51:54;15.50;99.90
53045;DHT22;38930;52.766;6.884;2022-07-29T00:54:20;15.40;99.90
53045;DHT22;38930;52.766;6.884;2022-07-29T00:56:46;15.40;99.90
53045;DHT22;38930;52.766;6.884;2022-07-29T00:59:11;15.40;99.90
53045;DHT22;38930;52.766;6.884;2022-07-29T01:01:37;15.80;99.90
53045;DHT22;38930;52.766;6.884;2022-07-29T01:04:03;15.50;99.90
53045;DHT22;38930;52.766;6.884;2022-07-29T01:06:29;15.50;99.90
53045;DHT22;38930;52.766;6.884;2022-07-29T01:08:55;15.40;99.90
53045;DHT22;38930;52.766;6.884;2022-07-29T01:11:21;15.40;99.90
53045;DHT22;38930;52.766;6.884;2022-07-29T01:13:47;15.40;99.90
53045;DHT22;38930;52.766;6.884;2022-07-29T01:16:21;15.40;99.90
53045;DHT22;38930;52.766;6.884;2022-07-29T01:18:55;15.40;99.90
53045;DHT22;38930;52.766;6.884;2022-07-29T01:21:35;15.40;99.90
53045;DHT22;38930;52.766;6.884;2022-07-29T01:24:52;15.50;99.90
53045;DHT22;38930;52.766;6.884;2022-07-29T01:29:49;15.30;99.90
53045;DHT22;38930;52.766;6.884;2022-07-29T01:32:20;15.30;99.90
53045;DHT22;38930;52.766;6.884;2022-07-29T01:35:02;15.30;99.90
53045;DHT22;38930;52.766;6.884;2022-07-29T01:37:48;15.30;99.90
53045;DHT22;38930;52.766;6.884;2022-07-29T01:43:30;15.20;99.90
53045;DHT22;38930;52.766;6.884;2022-07-29T01:46:00;15.20;99.90
53045;DHT22;38930;52.766;6.884;2022-07-29T01:48:43;15.20;99.90
53045;DHT22;38930;52.766;6.884;2022-07-29T01:51:18;15.20;99.90
53045;DHT22;38930;52.766;6.884;2022-07-29T01:53:50;15.20;99.90
53045;DHT22;38930;52.766;6.884;2022-07-29T01:56:18;15.20;99.90
53045;DHT22;38930;52.766;6.884;2022-07-29T01:58:46;15.20;99.90
53045;DHT22;38930;52.766;6.884;2022-07-29T02:01:13;15.20;99.90
53045;DHT22;38930;52.766;6.884;2022-07-29T02:03:44;15.10;99.90
53045;DHT22;38930;52.766;6.884;2022-07-29T02:06:11;15.20;99.90
53045;DHT22;38930;52.766;6.884;2022-07-29T02:08:38;15.20;99.90
53045;DHT22;38930;52.766;6.884;2022-07-29T02:11:04;15.10;99.90
53045;DHT22;38930;52.766;6.884;2022-07-29T02:13:31;15.40;99.90
53045;DHT22;38930;52.766;6.884;2022-07-29T02:16:00;15.10;99.90
53045;DHT22;38930;52.766;6.884;2022-07-29T02:18:28;15.10;99.90
53045;DHT22;38930;52.766;6.884;2022-07-29T02:20:56;15.50;99.90
53045;DHT22;38930;52.766;6.884;2022-07-29T02:23:25;15.10;99.90
53045;DHT22;38930;52.766;6.884;2022-07-29T02:25:54;15.10;99.90
53045;DHT22;38930;52.766;6.884;2022-07-29T02:28:23;15.20;99.90
53045;DHT22;38930;52.766;6.884;2022-07-29T02:30:50;15.10;99.90
53045;DHT22;38930;52.766;6.884;2022-07-29T02:33:18;15.10;99.90
53045;DHT22;38930;52.766;6.884;2022-07-29T02:35:46;15.60;99.90
53045;DHT22;38930;52.766;6.884;2022-07-29T02:38:15;15.10;99.90
53045;DHT22;38930;52.766;6.884;2022-07-29T02:41:10;15.10;99.90
53045;DHT22;38930;52.766;6.884;2022-07-29T02:43:37;15.10;99.90
53045;DHT22;38930;52.766;6.884;2022-07-29T02:46:05;15.00;99.90
53045;DHT22;38930;52.766;6.884;2022-07-29T02:48:37;15.10;99.90
53045;DHT22;38930;52.766;6.884;2022-07-29T02:51:27;15.10;99.90
53045;DHT22;38930;52.766;6.884;2022-07-29T02:53:56;15.00;99.90
53045;DHT22;38930;52.766;6.884;2022-07-29T02:56:27;15.10;99.90
53045;DHT22;38930;52.766;6.884;2022-07-29T02:58:58;14.90;99.90
53045;DHT22;38930;52.766;6.884;2022-07-29T03:01:30;14.80;99.90
53045;DHT22;38930;52.766;6.884;2022-07-29T03:03:56;15.00;99.90
53045;DHT22;38930;52.766;6.884;2022-07-29T03:06:24;14.90;99.90
53045;DHT22;38930;52.766;6.884;2022-07-29T03:08:51;14.90;99.90
53045;DHT22;38930;52.766;6.884;2022-07-29T03:11:17;15.10;99.90
53045;DHT22;38930;52.766;6.884;2022-07-29T03:13:44;15.00;99.90
53045;DHT22;38930;52.766;6.884;2022-07-29T03:16:10;14.90;99.90
53045;DHT22;38930;52.766;6.884;2022-07-29T03:18:37;15.00;99.90
53045;DHT22;38930;52.766;6.884;2022-07-29T03:21:04;14.90;99.90
53045;DHT22;38930;52.766;6.884;2022-07-29T03:23:30;14.90;99.90
53045;DHT22;38930;52.766;6.884;2022-07-29T03:25:56;14.90;99.90
53045;DHT22;38930;52.766;6.884;2022-07-29T03:28:22;14.90;99.90
53045;DHT22;38930;52.766;6.884;2022-07-29T03:30:48;14.90;99.90
53045;DHT22;38930;52.766;6.884;2022-07-29T03:33:14;14.90;99.90
53045;DHT22;38930;52.766;6.884;2022-07-29T03:35:40;14.90;99.90
53045;DHT22;38930;52.766;6.884;2022-07-29T03:38:05;14.90;99.90
53045;DHT22;38930;52.766;6.884;2022-07-29T03:43:32;14.80;99.90
53045;DHT22;38930;52.766;6.884;2022-07-29T03:46:00;14.80;99.90
53045;DHT22;38930;52.766;6.884;2022-07-29T03:48:28;14.90;99.90
53045;DHT22;38930;52.766;6.884;2022-07-29T03:50:56;14.80;99.90
53045;DHT22;38930;52.766;6.884;2022-07-29T03:53:22;14.80;99.90
53045;DHT22;38930;52.766;6.884;2022-07-29T03:55:52;14.70;99.90
53045;DHT22;38930;52.766;6.884;2022-07-29T03:58:19;14.90;99.90
53045;DHT22;38930;52.766;6.884;2022-07-29T04:00:45;14.70;99.90
53045;DHT22;38930;52.766;6.884;2022-07-29T04:03:12;15.10;99.90
53045;DHT22;38930;52.766;6.884;2022-07-29T04:05:38;14.70;99.90
53045;DHT22;38930;52.766;6.884;2022-07-29T04:08:04;14.70;99.90
53045;DHT22;38930;52.766;6.884;2022-07-29T04:10:30;14.70;99.90
53045;DHT22;38930;52.766;6.884;2022-07-29T04:12:56;14.70;99.90
53045;DHT22;38930;52.766;6.884;2022-07-29T04:15:22;14.70;99.90
53045;DHT22;38930;52.766;6.884;2022-07-29T04:17:47;14.70;99.90
53045;DHT22;38930;52.766;6.884;2022-07-29T04:20:13;14.70;99.90
53045;DHT22;38930;52.766;6.884;2022-07-29T04:22:41;14.70;99.90
53045;DHT22;38930;52.766;6.884;2022-07-29T04:25:07;14.70;99.90
53045;DHT22;38930;52.766;6.884;2022-07-29T04:27:33;14.70;99.90
53045;DHT22;38930;52.766;6.884;2022-07-29T04:29:59;14.70;99.90
53045;DHT22;38930;52.766;6.884;2022-07-29T04:32:25;14.70;99.90
53045;DHT22;38930;52.766;6.884;2022-07-29T04:34:51;14.70;99.90
53045;DHT22;38930;52.766;6.884;2022-07-29T04:37:18;14.70;99.90
53045;DHT22;38930;52.766;6.884;2022-07-29T04:39:43;14.60;99.90
53045;DHT22;38930;52.766;6.884;2022-07-29T04:42:09;14.80;99.90
53045;DHT22;38930;52.766;6.884;2022-07-29T04:44:35;14.80;99.90
53045;DHT22;38930;52.766;6.884;2022-07-29T04:47:00;14.80;99.90
53045;DHT22;38930;52.766;6.884;2022-07-29T04:49:26;14.80;99.90
53045;DHT22;38930;52.766;6.884;2022-07-29T04:51:51;15.10;99.90
53045;DHT22;38930;52.766;6.884;2022-07-29T04:54:17;14.90;99.90
53045;DHT22;38930;52.766;6.884;2022-07-29T04:56:43;14.90;99.90
53045;DHT22;38930;52.766;6.884;2022-07-29T04:59:08;14.90;99.90
53045;DHT22;38930;52.766;6.884;2022-07-29T05:01:34;15.00;99.90
53045;DHT22;38930;52.766;6.884;2022-07-29T05:03:59;15.00;99.90
53045;DHT22;38930;52.766;6.884;2022-07-29T05:06:25;15.00;99.90
53045;DHT22;38930;52.766;6.884;2022-07-29T05:08:50;15.10;99.90
53045;DHT22;38930;52.766;6.884;2022-07-29T05:11:16;15.00;99.90
53045;DHT22;38930;52.766;6.884;2022-07-29T05:13:42;15.00;99.90
53045;DHT22;38930;52.766;6.884;2022-07-29T05:16:08;15.00;99.90
53045;DHT22;38930;52.766;6.884;2022-07-29T05:18:34;15.00;99.90
53045;DHT22;38930;52.766;6.884;2022-07-29T05:20:59;15.00;99.90
53045;DHT22;38930;52.766;6.884;2022-07-29T05:23:25;15.30;99.90
53045;DHT22;38930;52.766;6.884;2022-07-29T05:25:51;15.10;99.90
53045;DHT22;38930;52.766;6.884;2022-07-29T05:28:16;15.10;99.90
53045;DHT22;38930;52.766;6.884;2022-07-29T05:30:42;15.20;99.90
53045;DHT22;38930;52.766;6.884;2022-07-29T05:33:10;15.20;99.90
53045;DHT22;38930;52.766;6.884;2022-07-29T05:35:36;15.30;99.90
53045;DHT22;38930;52.766;6.884;2022-07-29T05:38:03;15.40;99.90
53045;DHT22;38930;52.766;6.884;2022-07-29T05:40:28;15.50;99.90
53045;DHT22;38930;52.766;6.884;2022-07-29T05:42:54;15.50;99.90
53045;DHT22;38930;52.766;6.884;2022-07-29T05:45:20;15.60;99.90
53045;DHT22;38930;52.766;6.884;2022-07-29T05:47:45;15.60;99.90
53045;DHT22;38930;52.766;6.884;2022-07-29T05:50:11;15.70;99.90
53045;DHT22;38930;52.766;6.884;2022-07-29T05:52:37;15.70;99.90
53045;DHT22;38930;52.766;6.884;2022-07-29T05:55:02;15.70;99.90
53045;DHT22;38930;52.766;6.884;2022-07-29T05:57:29;15.70;99.90
53045;DHT22;38930;52.766;6.884;2022-07-29T05:59:55;15.70;99.90
53045;DHT22;38930;52.766;6.884;2022-07-29T06:02:21;15.60;99.90
53045;DHT22;38930;52.766;6.884;2022-07-29T06:04:46;15.70;99.90
53045;DHT22;38930;52.766;6.884;2022-07-29T06:07:12;16.10;99.90
53045;DHT22;38930;52.766;6.884;2022-07-29T06:09:38;15.70;99.90
53045;DHT22;38930;52.766;6.884;2022-07-29T06:12:04;15.80;99.90
53045;DHT22;38930;52.766;6.884;2022-07-29T06:14:29;15.80;99.90
53045;DHT22;38930;52.766;6.884;2022-07-29T06:16:55;15.80;99.90
53045;DHT22;38930;52.766;6.884;2022-07-29T06:19:21;15.80;99.90
53045;DHT22;38930;52.766;6.884;2022-07-29T06:21:47;15.90;99.90
53045;DHT22;38930;52.766;6.884;2022-07-29T06:24:14;15.90;99.90
53045;DHT22;38930;52.766;6.884;2022-07-29T06:26:40;16.40;99.90
53045;DHT22;38930;52.766;6.884;2022-07-29T06:29:07;16.10;99.90
53045;DHT22;38930;52.766;6.884;2022-07-29T06:31:33;16.10;99.90
53045;DHT22;38930;52.766;6.884;2022-07-29T06:33:59;16.20;99.90
53045;DHT22;38930;52.766;6.884;2022-07-29T06:36:25;16.30;99.90
53045;DHT22;38930;52.766;6.884;2022-07-29T06:38:50;16.30;99.90
53045;DHT22;38930;52.766;6.884;2022-07-29T06:41:16;16.40;99.90
53045;DHT22;38930;52.766;6.884;2022-07-29T06:43:43;16.70;99.90
53045;DHT22;38930;52.766;6.884;2022-07-29T06:46:16;16.60;99.90
53045;DHT22;38930;52.766;6.884;2022-07-29T06:48:46;16.70;99.90
53045;DHT22;38930;52.766;6.884;2022-07-29T06:51:12;17.30;99.90
53045;DHT22;38930;52.766;6.884;2022-07-29T06:53:38;16.80;99.90
53045;DHT22;38930;52.766;6.884;2022-07-29T06:56:05;16.90;99.90
53045;DHT22;38930;52.766;6.884;2022-07-29T06:58:31;17.00;99.90
53045;DHT22;38930;52.766;6.884;2022-07-29T07:00:58;17.10;99.90
53045;DHT22;38930;52.766;6.884;2022-07-29T07:03:24;17.20;99.90
53045;DHT22;38930;52.766;6.884;2022-07-29T07:05:52;17.40;99.90
53045;DHT22;38930;52.766;6.884;2022-07-29T07:08:18;17.30;99.90
53045;DHT22;38930;52.766;6.884;2022-07-29T07:10:45;17.30;99.90
53045;DHT22;38930;52.766;6.884;2022-07-29T07:13:11;17.50;99.90
53045;DHT22;38930;52.766;6.884;2022-07-29T07:15:37;17.40;99.90
53045;DHT22;38930;52.766;6.884;2022-07-29T07:18:04;17.50;99.90
53045;DHT22;38930;52.766;6.884;2022-07-29T07:20:31;17.50;99.90
53045;DHT22;38930;52.766;6.884;2022-07-29T07:22:57;17.60;99.90
53045;DHT22;38930;52.766;6.884;2022-07-29T07:25:22;17.60;99.90
53045;DHT22;38930;52.766;6.884;2022-07-29T07:27:48;17.70;99.90
53045;DHT22;38930;52.766;6.884;2022-07-29T07:30:14;17.60;99.90
53045;DHT22;38930;52.766;6.884;2022-07-29T07:32:40;17.80;99.90
53045;DHT22;38930;52.766;6.884;2022-07-29T07:35:06;18.00;99.90
53045;DHT22;38930;52.766;6.884;2022-07-29T07:37:33;17.90;99.90
53045;DHT22;38930;52.766;6.884;2022-07-29T07:39:58;17.90;99.90
53045;DHT22;38930;52.766;6.884;2022-07-29T07:42:24;18.00;99.90
53045;DHT22;38930;52.766;6.884;2022-07-29T07:44:50;18.10;99.90
53045;DHT22;38930;52.766;6.884;2022-07-29T07:47:16;18.10;99.90
53045;DHT22;38930;52.766;6.884;2022-07-29T07:49:49;18.20;99.90
53045;DHT22;38930;52.766;6.884;2022-07-29T07:52:16;18.20;99.90
53045;DHT22;38930;52.766;6.884;2022-07-29T07:54:42;18.30;99.90
53045;DHT22;38930;52.766;6.884;2022-07-29T07:57:09;18.40;99.90
53045;DHT22;38930;52.766;6.884;2022-07-29T07:59:35;18.50;99.90
53045;DHT22;38930;52.766;6.884;2022-07-29T08:02:00;18.70;99.90
53045;DHT22;38930;52.766;6.884;2022-07-29T08:04:26;18.70;99.90
53045;DHT22;38930;52.766;6.884;2022-07-29T08:06:52;18.90;99.90
53045;DHT22;38930;52.766;6.884;2022-07-29T08:09:20;19.00;99.90
53045;DHT22;38930;52.766;6.884;2022-07-29T08:11:46;19.30;99.90
53045;DHT22;38930;52.766;6.884;2022-07-29T08:14:11;19.10;99.90
53045;DHT22;38930;52.766;6.884;2022-07-29T08:16:37;19.10;99.90
53045;DHT22;38930;52.766;6.884;2022-07-29T08:19:02;19.10;99.90
53045;DHT22;38930;52.766;6.884;2022-07-29T08:21:28;19.10;99.90
53045;DHT22;38930;52.766;6.884;2022-07-29T08:23:54;19.10;99.90
53045;DHT22;38930;52.766;6.884;2022-07-29T08:26:41;19.10;99.90
53045;DHT22;38930;52.766;6.884;2022-07-29T08:29:06;19.10;99.90
53045;DHT22;38930;52.766;6.884;2022-07-29T08:31:32;19.10;99.90
53045;DHT22;38930;52.766;6.884;2022-07-29T08:33:57;19.10;99.90
53045;DHT22;38930;52.766;6.884;2022-07-29T08:36:25;19.20;99.90
53045;DHT22;38930;52.766;6.884;2022-07-29T08:38:51;19.40;99.90
53045;DHT22;38930;52.766;6.884;2022-07-29T08:41:20;19.20;99.90
53045;DHT22;38930;52.766;6.884;2022-07-29T08:43:47;19.30;99.90
53045;DHT22;38930;52.766;6.884;2022-07-29T08:46:12;19.40;99.90
53045;DHT22;38930;52.766;6.884;2022-07-29T08:48:41;19.40;99.90
53045;DHT22;38930;52.766;6.884;2022-07-29T08:51:07;19.40;99.90
53045;DHT22;38930;52.766;6.884;2022-07-29T08:53:33;19.40;99.90
53045;DHT22;38930;52.766;6.884;2022-07-29T08:55:59;19.50;99.90
53045;DHT22;38930;52.766;6.884;2022-07-29T08:58:32;19.60;99.90
53045;DHT22;38930;52.766;6.884;2022-07-29T09:01:01;19.70;99.90
53045;DHT22;38930;52.766;6.884;2022-07-29T09:03:31;19.70;99.90
53045;DHT22;38930;52.766;6.884;2022-07-29T09:06:00;19.70;99.90
53045;DHT22;38930;52.766;6.884;2022-07-29T09:08:27;19.80;99.90
53045;DHT22;38930;52.766;6.884;2022-07-29T09:10:53;19.80;99.90
53045;DHT22;38930;52.766;6.884;2022-07-29T09:13:21;19.90;99.90
53045;DHT22;38930;52.766;6.884;2022-07-29T09:15:46;20.00;99.90
53045;DHT22;38930;52.766;6.884;2022-07-29T09:18:12;20.10;99.90
53045;DHT22;38930;52.766;6.884;2022-07-29T09:20:56;20.20;99.90
53045;DHT22;38930;52.766;6.884;2022-07-29T09:23:41;20.30;99.90
53045;DHT22;38930;52.766;6.884;2022-07-29T09:26:08;20.30;99.90
53045;DHT22;38930;52.766;6.884;2022-07-29T09:28:41;20.40;99.90
53045;DHT22;38930;52.766;6.884;2022-07-29T09:31:07;20.50;99.90
53045;DHT22;38930;52.766;6.884;2022-07-29T09:33:34;20.50;99.90
53045;DHT22;38930;52.766;6.884;2022-07-29T09:36:06;20.60;99.90
53045;DHT22;38930;52.766;6.884;2022-07-29T09:38:33;20.70;99.90
53045;DHT22;38930;52.766;6.884;2022-07-29T09:41:01;20.70;99.90
53045;DHT22;38930;52.766;6.884;2022-07-29T09:43:27;20.70;99.90
53045;DHT22;38930;52.766;6.884;2022-07-29T09:45:54;20.80;99.90
53045;DHT22;38930;52.766;6.884;2022-07-29T09:48:25;20.80;99.90
53045;DHT22;38930;52.766;6.884;2022-07-29T09:50:51;20.80;99.90
53045;DHT22;38930;52.766;6.884;2022-07-29T09:53:34;20.80;99.90
53045;DHT22;38930;52.766;6.884;2022-07-29T09:56:00;20.90;99.90
53045;DHT22;38930;52.766;6.884;2022-07-29T09:58:29;20.80;99.90
53045;DHT22;38930;52.766;6.884;2022-07-29T10:00:55;21.00;99.90
53045;DHT22;38930;52.766;6.884;2022-07-29T10:03:21;21.00;99.90
53045;DHT22;38930;52.766;6.884;2022-07-29T10:06:07;21.10;99.90
53045;DHT22;38930;52.766;6.884;2022-07-29T10:08:33;21.10;99.90
53045;DHT22;38930;52.766;6.884;2022-07-29T10:11:09;21.10;99.90
53045;DHT22;38930;52.766;6.884;2022-07-29T10:13:36;21.10;99.90
53045;DHT22;38930;52.766;6.884;2022-07-29T10:16:03;21.00;99.90
53045;DHT22;38930;52.766;6.884;2022-07-29T10:18:29;21.00;99.90
53045;DHT22;38930;52.766;6.884;2022-07-29T10:20:55;21.00;99.90
53045;DHT22;38930;52.766;6.884;2022-07-29T10:23:22;20.90;99.90
53045;DHT22;38930;52.766;6.884;2022-07-29T10:25:48;20.90;99.90
53045;DHT22;38930;52.766;6.884;2022-07-29T10:28:14;20.80;99.90
53045;DHT22;38930;52.766;6.884;2022-07-29T10:30:40;20.70;99.90
53045;DHT22;38930;52.766;6.884;2022-07-29T10:39:17;20.50;99.90
53045;DHT22;38930;52.766;6.884;2022-07-29T10:44:18;20.40;99.90
53045;DHT22;38930;52.766;6.884;2022-07-29T10:46:45;20.30;99.90
53045;DHT22;38930;52.766;6.884;2022-07-29T10:49:13;20.30;99.90
53045;DHT22;38930;52.766;6.884;2022-07-29T10:52:05;20.30;99.90
53045;DHT22;38930;52.766;6.884;2022-07-29T10:54:41;20.20;99.90
53045;DHT22;38930;52.766;6.884;2022-07-29T10:57:30;20.10;99.90
53045;DHT22;38930;52.766;6.884;2022-07-29T11:05:01;20.10;99.90
53045;DHT22;38930;52.766;6.884;2022-07-29T11:07:27;20.20;99.90
53045;DHT22;38930;52.766;6.884;2022-07-29T11:15:08;20.10;99.90
53045;DHT22;38930;52.766;6.884;2022-07-29T11:23:26;20.10;99.90
53045;DHT22;38930;52.766;6.884;2022-07-29T11:29:02;20.20;99.90
53045;DHT22;38930;52.766;6.884;2022-07-29T11:31:32;20.20;99.90
53045;DHT22;38930;52.766;6.884;2022-07-29T11:34:21;20.30;99.90
53045;DHT22;38930;52.766;6.884;2022-07-29T11:47:33;20.50;99.90
53045;DHT22;38930;52.766;6.884;2022-07-29T11:50:01;20.60;99.90
53045;DHT22;38930;52.766;6.884;2022-07-29T11:52:39;20.60;99.90
53045;DHT22;38930;52.766;6.884;2022-07-29T11:55:14;20.70;99.90
53045;DHT22;38930;52.766;6.884;2022-07-29T11:57:52;20.70;99.90
53045;DHT22;38930;52.766;6.884;2022-07-29T12:00:30;20.70;99.90
53045;DHT22;38930;52.766;6.884;2022-07-29T12:03:06;20.70;99.90
53045;DHT22;38930;52.766;6.884;2022-07-29T12:05:41;20.60;99.90
53045;DHT22;38930;52.766;6.884;2022-07-29T12:08:21;20.60;99.90
53045;DHT22;38930;52.766;6.884;2022-07-29T12:10:49;20.70;99.90
53045;DHT22;38930;52.766;6.884;2022-07-29T12:13:16;20.70;99.90
53045;DHT22;38930;52.766;6.884;2022-07-29T12:15:50;20.60;99.90
53045;DHT22;38930;52.766;6.884;2022-07-29T12:18:18;20.80;99.90
53045;DHT22;38930;52.766;6.884;2022-07-29T12:20:46;20.80;99.90
53045;DHT22;38930;52.766;6.884;2022-07-29T12:23:12;20.90;99.90
53045;DHT22;38930;52.766;6.884;2022-07-29T12:25:42;20.90;99.90
53045;DHT22;38930;52.766;6.884;2022-07-29T12:28:11;21.10;99.90
53045;DHT22;38930;52.766;6.884;2022-07-29T12:33:15;21.30;99.90
53045;DHT22;38930;52.766;6.884;2022-07-29T12:35:46;21.40;99.90
53045;DHT22;38930;52.766;6.884;2022-07-29T12:38:12;21.30;99.90
53045;DHT22;38930;52.766;6.884;2022-07-29T12:40:38;21.40;99.90
53045;DHT22;38930;52.766;6.884;2022-07-29T12:43:08;21.30;99.90
53045;DHT22;38930;52.766;6.884;2022-07-29T12:45:35;21.50;99.90
53045;DHT22;38930;52.766;6.884;2022-07-29T12:48:01;21.70;99.90
53045;DHT22;38930;52.766;6.884;2022-07-29T12:50:26;21.50;99.90
53045;DHT22;38930;52.766;6.884;2022-07-29T12:52:52;21.70;99.90
53045;DHT22;38930;52.766;6.884;2022-07-29T12:55:47;21.70;99.90
53045;DHT22;38930;52.766;6.884;2022-07-29T12:58:26;21.80;99.90
53045;DHT22;38930;52.766;6.884;2022-07-29T13:01:14;21.90;99.90
53045;DHT22;38930;52.766;6.884;2022-07-29T13:03:55;22.00;99.90
53045;DHT22;38930;52.766;6.884;2022-07-29T13:06:43;22.00;99.90
53045;DHT22;38930;52.766;6.884;2022-07-29T13:09:11;22.10;99.90
53045;DHT22;38930;52.766;6.884;2022-07-29T13:14:12;22.30;99.90
53045;DHT22;38930;52.766;6.884;2022-07-29T13:17:05;22.40;99.90
53045;DHT22;38930;52.766;6.884;2022-07-29T13:20:03;22.60;99.90
53045;DHT22;38930;52.766;6.884;2022-07-29T13:22:30;22.70;99.90
53045;DHT22;38930;52.766;6.884;2022-07-29T13:24:56;22.80;99.90
53045;DHT22;38930;52.766;6.884;2022-07-29T13:27:27;22.90;99.90
53045;DHT22;38930;52.766;6.884;2022-07-29T13:29:54;22.80;99.90
53045;DHT22;38930;52.766;6.884;2022-07-29T13:32:23;22.70;99.90
53045;DHT22;38930;52.766;6.884;2022-07-29T13:34:49;22.80;99.90
53045;DHT22;38930;52.766;6.884;2022-07-29T13:37:15;22.80;99.90
53045;DHT22;38930;52.766;6.884;2022-07-29T13:39:42;22.90;99.90
53045;DHT22;38930;52.766;6.884;2022-07-29T13:42:08;22.90;99.90
53045;DHT22;38930;52.766;6.884;2022-07-29T13:44:35;23.00;99.90
53045;DHT22;38930;52.766;6.884;2022-07-29T13:47:00;23.00;99.90
53045;DHT22;38930;52.766;6.884;2022-07-29T13:49:27;23.10;99.90
53045;DHT22;38930;52.766;6.884;2022-07-29T13:51:53;23.30;99.90
53045;DHT22;38930;52.766;6.884;2022-07-29T13:54:18;23.40;99.90
53045;DHT22;38930;52.766;6.884;2022-07-29T13:56:44;23.60;99.90
53045;DHT22;38930;52.766;6.884;2022-07-29T13:59:10;23.80;99.90
53045;DHT22;38930;52.766;6.884;2022-07-29T14:01:36;24.00;99.90
53045;DHT22;38930;52.766;6.884;2022-07-29T14:04:02;24.30;99.90
53045;DHT22;38930;52.766;6.884;2022-07-29T14:06:28;24.50;99.90
53045;DHT22;38930;52.766;6.884;2022-07-29T14:08:55;24.60;99.80
53045;DHT22;38930;52.766;6.884;2022-07-29T14:11:20;24.60;99.10
53045;DHT22;38930;52.766;6.884;2022-07-29T14:13:46;24.60;99.70
53045;DHT22;38930;52.766;6.884;2022-07-29T14:16:12;24.60;99.60
53045;DHT22;38930;52.766;6.884;2022-07-29T14:18:37;24.50;99.50
53045;DHT22;38930;52.766;6.884;2022-07-29T14:21:03;24.60;99.30
53045;DHT22;38930;52.766;6.884;2022-07-29T14:23:28;24.60;99.50
53045;DHT22;38930;52.766;6.884;2022-07-29T14:25:54;24.60;98.90
53045;DHT22;38930;52.766;6.884;2022-07-29T14:28:20;24.60;98.90
53045;DHT22;38930;52.766;6.884;2022-07-29T14:30:45;24.60;99.00
53045;DHT22;38930;52.766;6.884;2022-07-29T14:33:11;24.50;99.40
53045;DHT22;38930;52.766;6.884;2022-07-29T14:35:36;24.40;99.50
53045;DHT22;38930;52.766;6.884;2022-07-29T14:38:02;24.40;99.50
53045;DHT22;38930;52.766;6.884;2022-07-29T14:40:28;24.40;99.40
53045;DHT22;38930;52.766;6.884;2022-07-29T14:42:53;24.40;99.10
53045;DHT22;38930;52.766;6.884;2022-07-29T14:45:21;24.20;99.30
53045;DHT22;38930;52.766;6.884;2022-07-29T14:47:47;24.00;99.50
53045;DHT22;38930;52.766;6.884;2022-07-29T14:50:14;23.90;99.60
53045;DHT22;38930;52.766;6.884;2022-07-29T14:52:40;23.80;99.60
53045;DHT22;38930;52.766;6.884;2022-07-29T14:55:06;23.70;99.40
53045;DHT22;38930;52.766;6.884;2022-07-29T14:57:32;23.70;99.80
53045;DHT22;38930;52.766;6.884;2022-07-29T14:59:57;23.60;99.70
53045;DHT22;38930;52.766;6.884;2022-07-29T15:02:23;23.70;99.80
53045;DHT22;38930;52.766;6.884;2022-07-29T15:04:48;23.70;98.70
53045;DHT22;38930;52.766;6.884;2022-07-29T15:07:15;23.70;98.80
53045;DHT22;38930;52.766;6.884;2022-07-29T15:09:41;23.70;98.70
53045;DHT22;38930;52.766;6.884;2022-07-29T15:12:07;23.70;98.80
53045;DHT22;38930;52.766;6.884;2022-07-29T15:14:33;23.70;99.00
53045;DHT22;38930;52.766;6.884;2022-07-29T15:17:01;23.80;98.90
53045;DHT22;38930;52.766;6.884;2022-07-29T15:19:27;23.90;99.10
53045;DHT22;38930;52.766;6.884;2022-07-29T15:21:53;24.10;99.00
53045;DHT22;38930;52.766;6.884;2022-07-29T15:24:19;24.30;98.70
53045;DHT22;38930;52.766;6.884;2022-07-29T15:26:45;24.40;98.50
53045;DHT22;38930;52.766;6.884;2022-07-29T15:29:13;24.50;98.50
53045;DHT22;38930;52.766;6.884;2022-07-29T15:31:42;24.50;98.50
53045;DHT22;38930;52.766;6.884;2022-07-29T15:34:07;24.50;98.40
53045;DHT22;38930;52.766;6.884;2022-07-29T15:36:33;24.40;98.60
53045;DHT22;38930;52.766;6.884;2022-07-29T15:38:58;24.40;98.90
53045;DHT22;38930;52.766;6.884;2022-07-29T15:41:24;24.40;98.40
53045;DHT22;38930;52.766;6.884;2022-07-29T15:43:50;24.50;98.40
53045;DHT22;38930;52.766;6.884;2022-07-29T15:46:18;24.50;97.20
53045;DHT22;38930;52.766;6.884;2022-07-29T15:49:03;24.50;97.70
53045;DHT22;38930;52.766;6.884;2022-07-29T15:51:29;24.50;97.00
53045;DHT22;38930;52.766;6.884;2022-07-29T15:53:55;24.40;97.20
53045;DHT22;38930;52.766;6.884;2022-07-29T15:56:21;24.30;97.50
53045;DHT22;38930;52.766;6.884;2022-07-29T15:58:47;24.30;97.10
53045;DHT22;38930;52.766;6.884;2022-07-29T16:01:13;24.20;96.60
53045;DHT22;38930;52.766;6.884;2022-07-29T16:03:41;24.10;97.10
53045;DHT22;38930;52.766;6.884;2022-07-29T16:06:08;24.10;96.80
53045;DHT22;38930;52.766;6.884;2022-07-29T16:08:34;24.10;96.80
53045;DHT22;38930;52.766;6.884;2022-07-29T16:10:59;24.00;96.90
53045;DHT22;38930;52.766;6.884;2022-07-29T16:13:25;24.10;97.30
53045;DHT22;38930;52.766;6.884;2022-07-29T16:15:50;24.00;97.60
53045;DHT22;38930;52.766;6.884;2022-07-29T16:18:16;24.00;97.30
53045;DHT22;38930;52.766;6.884;2022-07-29T16:20:42;24.10;97.60
53045;DHT22;38930;52.766;6.884;2022-07-29T16:23:07;24.00;97.60
53045;DHT22;38930;52.766;6.884;2022-07-29T16:25:40;24.20;97.00
53045;DHT22;38930;52.766;6.884;2022-07-29T16:28:06;24.20;97.00